• Join FlightAware (Why Join?)
  • Login
  • US Flag 
10:47AM EDT


 

Airport Tracker/Info


-or-


 

Live Flight TrackerFlight Track Log ✈ ASQ4233 ✈ 12-May-2013 ✈ KIAH - KBHM

Flight Track Log - Related Links

Times and Time Zones

All times are in EDT time to prevent confusion due to time zone crossing. See the ASQ4233 flight status page for this flight to view local times or setup timezone preferences in your user account.

Time Position Orientation Groundspeed Altitude Reporting Facility
EDT Latitude Longitude Course Direction KTS MPH feet Rate Location/Type
07:21PM 29.9594 -95.3414 90° East 177 204 700  Level Houston Center
07:22PM 29.9383 -95.2958 118° Southeast 201 231 2,200 1,800 Climbing Houston Center
07:23PM 29.9253 -95.2203 101° East 268 308 4,000 2,160 Climbing Houston Center
07:24PM 29.9834 -94.9013 90° East  Level FlightAware Approximate
07:24PM 29.9322 -95.1375 84° East 270 311 6,700  Level Houston Center
07:25PM 29.9834 -94.7572 90° East  Level FlightAware Approximate
07:25PM 29.9397 -95.0375 85° East 273 314 9,400  Level Houston Center
07:26PM 29.9833 -94.6132 90° East  Level FlightAware Approximate
07:26PM 29.9475 -94.9464 84° East 286 329 10,400  Level Houston Center
07:27PM 29.9564 -94.8333 85° East 343 395 11,300 900 Climbing Houston Center
07:28PM 29.9667 -94.7136 84° East 366 421 12,300 960 Climbing Houston Center
07:29PM 29.9758 -94.5892 85° East 383 441 13,300 960 Climbing Houston Center
07:30PM 29.9858 -94.4608 85° East 395 455 14,300 960 Climbing Houston Center
07:31PM 29.9950 -94.3344 85° East 396 456 15,300 1,200 Climbing Houston Center
07:32PM 30.0117 -94.1769 83° East 407 468 16,800 1,380 Climbing Houston Center
07:33PM 30.0278 -94.0500 82° East 407 468 18,200 1,200 Climbing Houston Center
07:34PM 30.0439 -93.9231 82° East 404 465 19,300 1,260 Climbing Houston Center
07:35PM 30.0597 -93.7894 82° East 415 478 20,800 1,560 Climbing Houston Center
07:36PM 30.0753 -93.6575 82° East 418 481 22,500 1,320 Climbing Houston Center
07:37PM 30.0908 -93.5256 82° East 419 482 23,600 1,140 Climbing Houston Center
07:38PM 30.1097 -93.3614 82° East 435 501 24,900 1,140 Climbing Houston Center
07:39PM 30.1264 -93.2217 82° East 443 510 26,000 1,020 Climbing Houston Center
07:40PM 30.1544 -93.0828 77° East 452 520 27,000 1,020 Climbing Houston Center
07:41PM 30.2183 -92.9625 58° Northeast 444 511 28,100 1,020 Climbing Houston Center
07:42PM 30.2850 -92.8411 58° Northeast 448 516 29,200 1,080 Climbing Houston Center
07:43PM 30.3669 -92.6919 57° Northeast 458 527 30,400 840 Climbing Houston Center
07:44PM 30.4364 -92.5633 58° Northeast 469 540 31,000 240 Climbing Houston Center
07:45PM 30.5072 -92.4317 58° Northeast 495 570 31,000  Level Houston Center
07:46PM 30.5844 -92.2883 58° Northeast 519 597 31,000  Level Houston Center
07:47PM 30.6800 -92.1114 58° Northeast 537 618 31,000  Level Houston Center
07:48PM 30.7586 -91.9633 58° Northeast 540 621 31,000  Level Houston Center
07:50PM 30.8378 -91.8167 58° Northeast 540 621 31,000  Level Houston Center
07:51PM 30.9167 -91.6694 58° Northeast 539 620 31,000  Level Houston Center
07:52PM 30.9942 -91.5211 59° Northeast 539 620 31,000  Level Houston Center
07:53PM 31.0778 -91.3644 58° Northeast 543 625 31,000  Level Houston Center
07:54PM 31.1558 -91.2153 59° Northeast 540 621 31,000  Level Houston Center
07:55PM 31.2344 -91.0656 58° Northeast 540 621 31,000 -60 Level Houston Center
07:56PM 31.3122 -90.9150 59° Northeast 541 623 30,900  Descending Houston Center
07:57PM 31.4053 -90.7350 59° Northeast 538 619 31,000  Climbing Houston Center
07:58PM 31.4839 -90.5833 59° Northeast 542 624 31,000  Level Houston Center
07:59PM 31.5611 -90.4319 59° Northeast 541 623 31,000  Level Houston Center
08:00PM 31.6394 -90.2811 59° Northeast 541 623 31,000  Level Houston Center
08:01PM 31.7164 -90.1294 59° Northeast 540 621 31,000  Level Houston Center
08:01PM 31.7508 -90.0642 58° Northeast 537 618 31,000  Level Memphis Center
08:02PM 31.8236 -89.9172 60° Northeast 532 612 31,000  Level Memphis Center
08:03PM 31.9022 -89.7628 59° Northeast 532 612 31,000  Level Memphis Center
08:04PM 31.9767 -89.6153 59° Northeast 532 612 31,000  Level Memphis Center
08:05PM 32.0550 -89.4603 59° Northeast 532 612 31,000  Level Memphis Center
08:06PM 32.1308 -89.3075 60° Northeast 532 612 31,000  Level Memphis Center
08:07PM 32.2150 -89.1369 60° Northeast 532 612 31,000  Level Memphis Center
08:08PM 32.2886 -88.9886 60° Northeast 532 612 31,000  Level Memphis Center
08:09PM 32.3661 -88.8350 59° Northeast 532 612 31,000  Level Memphis Center
08:10PM 32.4561 -88.6956 53° Northeast 537 618 31,000 -300 Level Memphis Center
08:11PM 32.5503 -88.5581 51° Northeast 537 618 30,500 -900 Descending Memphis Center
08:12PM 32.6464 -88.4231 50° Northeast 532 612 29,300 -1,260 Descending Memphis Center
08:13PM 32.7403 -88.2828 51° Northeast 532 612 28,000 -2,460 Descending Memphis Center
08:15PM 32.8983 -88.0467 51° Northeast 521 600 22,400 -2,700 Descending Atlanta Center
08:16PM 32.9728 -87.9411 50° Northeast 493 567 20,400 -2,220 Descending Atlanta Center
08:17PM 33.0581 -87.8158 51° Northeast 457 526 18,000 -2,160 Descending Atlanta Center
08:17PM 33.0864 -87.7725 52° Northeast 448 516 17,400 -1,800 Descending Atlanta Center
08:18PM 33.1303 -87.7000 54° Northeast 442 509 16,200 -1,980 Descending Atlanta Center
08:18PM 33.1503 -87.6636 57° Northeast 429 494 15,600 -2,040 Descending Atlanta Center
08:19PM 33.1861 -87.5808 63° Northeast 424 488 14,200 -2,100 Descending Atlanta Center
08:19PM 33.2058 -87.5444 57° Northeast 406 467 13,500 -1,920 Descending Atlanta Center
08:20PM 33.2417 -87.4614 63° Northeast 410 472 12,300 -1,920 Descending Atlanta Center
08:21PM 33.2639 -87.4075 64° Northeast 393 452 11,400 -1,620 Descending Atlanta Center
08:21PM 33.2906 -87.3464 62° Northeast 399 459 10,700 -900 Descending Atlanta Center
08:22PM 33.3128 -87.3025 59° Northeast 360 414 10,500 -840 Descending Atlanta Center
08:22PM 33.3328 -87.2486 66° East 354 407 9,900 -1,140 Descending Atlanta Center
08:23PM 33.3506 -87.2119 60° Northeast 284 327 9,400 -1,020 Descending Atlanta Center
08:23PM 33.3706 -87.1631 64° Northeast 316 364 8,900 -1,020 Descending Atlanta Center
08:24PM 33.3861 -87.1311 60° Northeast 267 307 8,400 -1,140 Descending Atlanta Center
08:24PM 33.4081 -87.0847 60° Northeast 286 329 7,800 -1,440 Descending Atlanta Center
08:25PM 33.4236 -87.0453 65° Northeast 279 321 7,000 -1,740 Descending Atlanta Center
08:25PM 33.4433 -87.0014 62° Northeast 272 313 6,100 -1,620 Descending Atlanta Center
08:26PM 33.4589 -86.9694 60° Northeast 274 315 5,400 -1,500 Descending Atlanta Center
08:26PM 33.4767 -86.9253 64° Northeast 267 307 4,600 -1,620 Descending Atlanta Center
08:27PM 33.4878 -86.8958 66° East 244 281 3,800 -1,620 Descending Atlanta Center
08:27PM 33.5053 -86.8589 60° Northeast 243 280 3,000 -1,680 Descending Atlanta Center
08:27PM 33.5119 -86.8417 65° Northeast 177 204 2,300 -1,260 Descending Atlanta Center
08:29PM 33.5378 -86.8003 53° Northeast 134 154 1,200 -1,140 Descending Atlanta Center